Huvudsida
METAR-TAF:

METAR-TAF

Flygplatser :

Cam Ranhs internationella flygplats

Cam Ranh, Vietnam

latitud: 11-59-53N, longitud: 109-13-10E, höjd: 12 m

Aktuellt väderrapport

Denna rapport gjordes för 38 minuter sedan, klockan 13:00 UTC
Vind 13 kt från sydväst
Temperatur 30°C
Fuktighet 70%
Tryck 1003 hPa
Sikt 10 km eller mer
Få moln på en höjd av 1300 ft
Brutna moln på en höjd av 5000 ft

METAR: VVCR 171300Z 23013KT 9999 FEW013 BKN050 30/24 Q1003 NOSIG

Tid: 20:38 (13:38 UTC)

Väderprognos

Denna rapport gjordes för 2 timmar och 38 minuter sedan, klockan 11:00 UTC
Prognos gäller från 17 kl. 12 UTC till 18 kl. 12 UTC
Vind 12 kt från sydväst
Sikt 10 km eller mer
Spridda moln på en höjd av 1300 ft
Brutna moln på en höjd av 4000 ft
Temporärt
från 17 kl. 12 UTC till 17 kl. 14 UTC
Vind 15 kt från sydväst i byarna ända upp till 25 kt

TAF: VVCR 171100Z 1712/1812 23012KT 9999 SCT013 BKN040 TEMPO 1712/1714 23015G25KT

Aktuella väderrapporter och prognoser från 4000 flygplatser (METAR- och TAF-rapporter).

De tillgängliga stationerna syns som gula och röda prickar på kartan.

För musen över prickarna för att se namnen på stationerna.

Klicka sedan för att få väderrapporter och prognoser.

För att ändra kartan: Klicka på de gröna knapparna med ett svart kors på för att zooma in; den gröna knappen med ett streck på för att zooma ut; eller på de gröna pilarna för angränsande kartor.


METAR-TAF: